createdAt,value
2023-02-02T00:02:34.444Z,0.23
2023-02-02T00:07:37.957Z,0.20
2023-02-02T00:12:41.283Z,0.30
2023-02-02T00:17:46.387Z,0.20
2023-02-02T00:22:49.654Z,0.20
2023-02-02T00:27:53.004Z,0.30
2023-02-02T00:32:57.798Z,0.20
2023-02-02T00:38:01.274Z,0.20
2023-02-02T00:43:04.710Z,0.23
2023-02-02T00:48:10.966Z,0.20
2023-02-02T00:53:14.400Z,0.30
2023-02-02T00:58:18.095Z,0.30
2023-02-02T01:03:23.249Z,0.20
2023-02-02T01:08:26.808Z,0.30
2023-02-02T01:13:30.109Z,0.30
2023-02-02T01:18:35.006Z,0.37
2023-02-02T01:23:39.568Z,0.20
2023-02-02T01:28:43.700Z,0.30
2023-02-02T01:33:50.138Z,0.40
2023-02-02T01:38:53.911Z,0.20
2023-02-02T01:43:59.950Z,0.10
2023-02-02T01:49:10.878Z,0.20
2023-02-02T01:54:18.355Z,0.20
2023-02-02T01:59:22.648Z,0.30
2023-02-02T02:04:30.399Z,0.20
2023-02-02T02:09:35.536Z,0.30
2023-02-02T02:14:56.681Z,0.20
2023-02-02T02:20:52.472Z,0.20
2023-02-02T02:26:37.183Z,0.40
2023-02-02T02:32:15.421Z,0.20
2023-02-02T02:37:30.519Z,0.30
2023-02-02T02:42:38.337Z,0.30
2023-02-02T02:47:44.886Z,0.30
2023-02-02T02:52:51.256Z,0.30
2023-02-02T02:58:06.467Z,0.20
2023-02-02T03:03:22.202Z,0.30
2023-02-02T03:08:32.681Z,0.27
2023-02-02T03:13:36.372Z,0.30
2023-02-02T03:18:41.444Z,0.30
2023-02-02T03:23:47.548Z,0.30
2023-02-02T03:28:51.531Z,0.30
2023-02-02T03:33:56.887Z,0.20
2023-02-02T03:39:00.333Z,0.20
2023-02-02T03:44:03.735Z,0.30
2023-02-02T03:49:08.541Z,0.30
2023-02-02T03:54:12.004Z,0.30
2023-02-02T03:59:15.541Z,0.40
2023-02-02T04:04:20.297Z,0.40
2023-02-02T04:09:23.621Z,0.40
2023-02-02T04:14:26.943Z,0.60
2023-02-02T04:19:31.738Z,0.40
2023-02-02T04:24:37.149Z,0.40
2023-02-02T04:29:41.336Z,0.30
2023-02-02T04:34:46.712Z,0.40
2023-02-02T04:39:50.795Z,0.40
2023-02-02T04:44:54.199Z,0.40
2023-02-02T04:49:58.934Z,0.40
2023-02-02T04:55:02.474Z,0.43
2023-02-02T05:00:06.629Z,0.40
2023-02-02T05:05:14.507Z,0.43
2023-02-02T05:10:18.456Z,0.40
2023-02-02T05:15:22.876Z,0.40
2023-02-02T05:20:28.130Z,0.30
2023-02-02T05:25:31.485Z,0.50
2023-02-02T05:30:35.061Z,0.40
2023-02-02T05:35:39.865Z,0.40
2023-02-02T05:40:43.364Z,0.40
2023-02-02T05:45:46.855Z,0.50
2023-02-02T05:50:59.752Z,0.57
2023-02-02T05:56:03.460Z,0.50
2023-02-02T06:01:07.138Z,0.70
2023-02-02T06:06:12.056Z,0.50
2023-02-02T06:11:17.881Z,0.50
2023-02-02T06:16:21.398Z,0.50
2023-02-02T06:21:26.268Z,0.43
2023-02-02T06:26:29.807Z,0.50
2023-02-02T06:31:34.241Z,0.60
2023-02-02T06:36:39.056Z,0.60
2023-02-02T06:41:44.877Z,0.40
2023-02-02T06:46:48.407Z,0.47
2023-02-02T06:51:53.256Z,0.60
2023-02-02T06:56:57.208Z,0.50
2023-02-02T07:02:00.558Z,0.73
2023-02-02T07:07:05.979Z,0.70
2023-02-02T07:12:09.287Z,0.50
2023-02-02T07:17:12.911Z,0.50
2023-02-02T07:22:17.693Z,0.50
2023-02-02T07:27:21.044Z,0.60
2023-02-02T07:32:24.480Z,0.40
2023-02-02T07:37:29.209Z,0.57
2023-02-02T07:42:32.752Z,0.60
2023-02-02T07:47:36.140Z,0.60
2023-02-02T07:52:40.833Z,0.50
2023-02-02T07:57:44.288Z,0.50
2023-02-02T08:02:50.205Z,0.70
2023-02-02T08:07:55.016Z,0.60
2023-02-02T08:12:58.869Z,0.50
2023-02-02T08:18:02.346Z,0.70
2023-02-02T08:23:13.441Z,0.50
2023-02-02T08:28:17.005Z,0.80
2023-02-02T08:33:20.511Z,0.70
2023-02-02T08:38:27.091Z,0.67
2023-02-02T08:43:31.014Z,0.60
2023-02-02T08:48:36.454Z,0.60
2023-02-02T08:53:41.548Z,0.60
2023-02-02T08:58:47.390Z,0.60
2023-02-02T09:03:54.341Z,0.50
2023-02-02T09:08:59.298Z,0.70
2023-02-02T09:14:03.877Z,0.70
2023-02-02T09:19:07.957Z,0.70
2023-02-02T09:24:14.629Z,0.60
2023-02-02T09:29:22.806Z,0.80
2023-02-02T09:34:26.526Z,0.60
2023-02-02T09:39:31.451Z,0.63
2023-02-02T09:44:50.805Z,0.63
2023-02-02T09:50:02.095Z,0.80
2023-02-02T09:55:13.340Z,0.70
2023-02-02T10:00:28.737Z,0.73
2023-02-02T10:05:44.311Z,0.60
2023-02-02T10:10:51.692Z,0.70
2023-02-02T10:16:04.295Z,0.67
2023-02-02T10:21:12.528Z,0.70
2023-02-02T10:26:21.234Z,0.80
2023-02-02T10:31:36.561Z,0.60
2023-02-02T10:37:01.434Z,0.60
2023-02-02T10:42:17.309Z,1.00
2023-02-02T10:47:26.581Z,0.80
2023-02-02T10:52:34.775Z,0.70
2023-02-02T10:57:53.083Z,0.60
2023-02-02T11:02:56.649Z,0.87
2023-02-02T11:08:00.877Z,0.80
2023-02-02T11:13:08.988Z,0.60
2023-02-02T11:18:26.882Z,0.80
2023-02-02T11:23:32.151Z,0.70
2023-02-02T11:28:38.577Z,0.87
2023-02-02T11:33:42.192Z,0.67
2023-02-02T11:38:45.571Z,0.80
2023-02-02T11:44:10.899Z,0.70
2023-02-02T11:49:19.425Z,0.70
2023-02-02T11:54:27.633Z,0.97
2023-02-02T11:59:38.945Z,0.73
2023-02-02T12:04:42.785Z,0.77
2023-02-02T12:09:46.608Z,0.70
2023-02-02T12:14:59.921Z,0.63
2023-02-02T12:20:12.827Z,0.70
2023-02-02T12:25:38.612Z,0.90
2023-02-02T12:30:54.506Z,0.80
2023-02-02T12:36:10.978Z,0.80
2023-02-02T12:41:36.286Z,0.90
2023-02-02T12:47:03.064Z,0.70
2023-02-02T12:52:18.852Z,0.67
2023-02-02T12:57:29.587Z,1.00
2023-02-02T13:02:41.666Z,0.70
2023-02-02T13:13:15.363Z,1.00
2023-02-02T13:18:24.443Z,0.90
2023-02-02T13:23:33.681Z,0.87
2023-02-02T13:28:42.747Z,0.90
2023-02-02T13:33:54.968Z,0.70
2023-02-02T13:39:03.015Z,0.90
2023-02-02T13:44:10.692Z,1.07
2023-02-02T13:49:20.929Z,1.00
2023-02-02T13:55:04.015Z,0.73
2023-02-02T14:00:17.495Z,1.57
2023-02-02T14:05:28.984Z,0.70
2023-02-02T14:10:37.474Z,0.83
2023-02-02T14:15:42.399Z,0.70
2023-02-02T14:20:58.591Z,0.70
2023-02-02T14:26:10.161Z,0.53
2023-02-02T14:31:31.654Z,0.60
2023-02-02T14:36:51.924Z,0.63
2023-02-02T14:42:35.573Z,0.50
2023-02-02T14:47:51.111Z,0.70
2023-02-02T14:53:03.812Z,0.70
2023-02-02T14:58:08.046Z,0.40
2023-02-02T15:03:37.844Z,0.67
2023-02-02T15:08:46.678Z,0.57
2023-02-02T15:14:07.502Z,0.70
2023-02-02T15:19:28.432Z,0.60
2023-02-02T15:24:36.375Z,0.50
2023-02-02T15:29:44.969Z,0.50
2023-02-02T15:34:52.029Z,0.70
2023-02-02T15:39:59.932Z,0.60
2023-02-02T15:45:03.449Z,0.60
2023-02-02T15:50:19.993Z,0.50
2023-02-02T15:55:32.019Z,0.50
2023-02-02T16:00:38.216Z,0.60
2023-02-02T16:05:48.721Z,0.57
2023-02-02T16:11:04.575Z,0.60
2023-02-02T16:16:22.687Z,0.70
2023-02-02T16:21:28.186Z,0.60
2023-02-02T16:26:34.566Z,0.70
2023-02-02T16:31:38.450Z,0.80
2023-02-02T16:37:09.815Z,0.80
2023-02-02T16:42:25.774Z,0.90
2023-02-02T16:47:38.988Z,0.67
2023-02-02T16:52:51.550Z,0.60
2023-02-02T16:57:57.504Z,0.60
2023-02-02T17:03:05.590Z,0.90
2023-02-02T17:08:09.133Z,0.70
2023-02-02T17:13:52.091Z,1.00
2023-02-02T17:18:55.922Z,0.83
2023-02-02T17:24:00.367Z,1.00
2023-02-02T17:29:06.032Z,0.90
2023-02-02T17:34:14.469Z,1.00
2023-02-02T17:39:20.988Z,1.00
2023-02-02T17:44:27.709Z,0.83
2023-02-02T17:49:31.830Z,0.90
2023-02-02T17:54:36.854Z,0.60
2023-02-02T17:59:42.196Z,0.77
2023-02-02T18:04:46.357Z,0.80
2023-02-02T18:09:50.337Z,1.00
2023-02-02T18:14:55.679Z,0.97
2023-02-02T18:20:00.704Z,1.10
2023-02-02T18:25:05.167Z,0.90
2023-02-02T18:30:12.760Z,0.80
2023-02-02T18:35:16.777Z,1.07
2023-02-02T18:40:21.172Z,1.00
2023-02-02T18:45:29.687Z,0.90
2023-02-02T18:50:34.452Z,0.97
2023-02-02T18:55:39.803Z,1.00
2023-02-02T19:00:48.405Z,1.20
2023-02-02T19:06:10.003Z,0.90
2023-02-02T19:11:18.879Z,0.90
2023-02-02T19:16:27.481Z,1.10
2023-02-02T19:21:33.188Z,1.20
2023-02-02T19:26:40.115Z,1.00
2023-02-02T19:31:47.001Z,1.00
2023-02-02T19:36:51.409Z,0.97
2023-02-02T19:42:00.152Z,1.00
2023-02-02T19:47:22.279Z,0.87
2023-02-02T19:52:28.253Z,0.90
2023-02-02T19:57:36.820Z,0.90
2023-02-02T20:02:58.432Z,1.17
2023-02-02T20:08:07.922Z,0.93
2023-02-02T20:13:20.371Z,0.90
2023-02-02T20:18:30.524Z,1.63
2023-02-02T20:23:42.547Z,1.13
2023-02-02T20:28:48.727Z,0.93
2023-02-02T20:33:58.878Z,1.20
2023-02-02T20:39:28.248Z,0.80
2023-02-02T20:44:33.793Z,0.83
2023-02-02T20:49:42.026Z,1.00
2023-02-02T20:54:46.262Z,1.13
2023-02-02T20:59:57.526Z,1.00
2023-02-02T21:05:03.131Z,1.10
2023-02-02T21:10:07.352Z,1.00
2023-02-02T21:15:11.847Z,1.20
2023-02-02T21:20:17.365Z,1.00
2023-02-02T21:25:20.767Z,0.90
2023-02-02T21:30:32.443Z,0.73
2023-02-02T21:35:37.363Z,1.17
2023-02-02T21:40:41.661Z,1.37
2023-02-02T21:45:50.055Z,1.00
2023-02-02T21:50:54.852Z,1.03
2023-02-02T21:56:00.388Z,1.20
2023-02-02T22:01:19.590Z,1.30
2023-02-02T22:06:30.989Z,1.20
2023-02-02T22:11:44.722Z,0.80
2023-02-02T22:16:50.355Z,1.10
2023-02-02T22:21:59.661Z,1.03
2023-02-02T22:27:03.415Z,0.97
2023-02-02T22:32:06.787Z,0.97
2023-02-02T22:37:11.454Z,1.00
2023-02-02T22:42:14.847Z,1.17
2023-02-02T22:47:18.158Z,1.17
2023-02-02T22:52:22.999Z,1.20
2023-02-02T22:57:26.330Z,1.20
2023-02-02T23:02:30.208Z,0.90
2023-02-02T23:07:35.112Z,0.90
2023-02-02T23:12:38.429Z,0.90
2023-02-02T23:17:41.994Z,1.20
2023-02-02T23:22:47.038Z,1.03
2023-02-02T23:27:50.696Z,1.30
2023-02-02T23:32:54.120Z,1.03
2023-02-02T23:37:58.888Z,1.17
2023-02-02T23:43:02.289Z,1.00
2023-02-02T23:48:06.061Z,1.30
2023-02-02T23:53:12.075Z,1.10
2023-02-02T23:58:16.205Z,1.20
